Time,TemperatureF,DewpointF,PressureIn,WindDirection,WindDirectionDegrees,WindSpeedMPH,WindSpeedGustMPH,Humidity,HourlyPrecipIn,Conditions,Clouds,dailyrainin,SoftwareType,DateUTC
2019-11-19 00:00:00,44.2,43.5,29.59,South,180,0,5,97,0.04,,,0.34,meteohub,2019-11-18 23:00:00,
2019-11-19 00:05:00,44.2,43.5,29.59,South,181,0,0,97,0.04,,,0.35,meteohub,2019-11-18 23:05:00,
2019-11-19 00:10:00,44.1,43.3,29.59,South,180,0,0,97,0.05,,,0.01,meteohub,2019-11-18 23:10:00,
2019-11-19 00:15:03,44.1,43.3,29.59,South,180,0,2,97,0.04,,,0.01,meteohub,2019-11-18 23:15:03,
2019-11-19 00:20:01,44.1,43.3,29.59,South,175,0,2,97,0.05,,,0.02,meteohub,2019-11-18 23:20:01,
2019-11-19 00:25:01,44.1,43.3,29.59,South,175,0,2,97,0.06,,,0.02,meteohub,2019-11-18 23:25:01,
2019-11-19 00:30:00,43.9,43.2,29.59,South,182,0,0,97,0.05,,,0.02,meteohub,2019-11-18 23:30:00,
2019-11-19 00:35:05,43.9,43.2,29.59,South,182,0,5,97,0.06,,,0.03,meteohub,2019-11-18 23:35:05,
2019-11-19 00:40:00,43.7,43,29.59,South,182,0,5,97,0.06,,,0.04,meteohub,2019-11-18 23:40:00,
2019-11-19 00:45:02,43.7,43,29.59,South,182,0,2,97,0.06,,,0.05,meteohub,2019-11-18 23:45:02,
2019-11-19 00:50:03,43.5,42.8,29.59,South,182,0,0,97,0.06,,,0.06,meteohub,2019-11-18 23:50:03,
2019-11-19 00:55:03,43.5,42.8,29.59,South,182,0,0,97,0.07,,,0.06,meteohub,2019-11-18 23:55:03,
2019-11-19 01:00:01,43.3,42.6,29.59,South,181,0,0,97,0.07,,,0.07,meteohub,2019-11-19 00:00:01,
2019-11-19 01:05:01,43.3,42.6,29.59,South,181,0,2,97,0.08,,,0.08,meteohub,2019-11-19 00:05:01,
2019-11-19 01:10:02,43.2,42.4,29.59,South,180,0,2,97,0.07,,,0.08,meteohub,2019-11-19 00:10:02,
2019-11-19 01:15:01,43.2,42.4,29.59,South,180,0,2,97,0.07,,,0.09,meteohub,2019-11-19 00:15:01,
2019-11-19 01:20:00,43.2,42.4,29.59,South,181,0,0,97,0.07,,,0.09,meteohub,2019-11-19 00:20:00,
2019-11-19 01:25:00,43.2,42.4,29.58,South,181,0,0,97,0.06,,,0.09,meteohub,2019-11-19 00:25:00,
2019-11-19 01:30:00,43.2,42.4,29.58,South,181,0,0,97,0.06,,,0.09,meteohub,2019-11-19 00:30:00,
2019-11-19 01:35:02,43.2,42.4,29.59,South,182,0,0,97,0.05,,,0.09,meteohub,2019-11-19 00:35:02,
2019-11-19 01:40:01,43,42.3,29.59,South,182,0,3,97,0.06,,,0.09,meteohub,2019-11-19 00:40:01,
2019-11-19 01:45:01,43,42.3,29.59,South,182,0,3,97,0.05,,,0.09,meteohub,2019-11-19 00:45:01,
2019-11-19 01:50:04,43,42.3,29.59,South,182,0,3,97,0.04,,,0.09,meteohub,2019-11-19 00:50:04,
2019-11-19 01:55:03,42.8,42.1,29.59,South,182,0,0,97,0.03,,,0.09,meteohub,2019-11-19 00:55:03,
2019-11-19 02:00:00,42.6,41.9,29.59,South,183,2,0,97,0.02,,,0.09,meteohub,2019-11-19 01:00:00,
2019-11-19 02:05:01,42.6,41.9,29.59,South,183,0,0,97,0.02,,,0.09,meteohub,2019-11-19 01:05:01,
2019-11-19 02:10:04,42.6,41.9,29.59,South,183,0,4,97,0.02,,,0.1,meteohub,2019-11-19 01:10:04,
2019-11-19 02:15:00,42.6,41.9,29.59,South,183,0,4,97,0.02,,,0.1,meteohub,2019-11-19 01:15:00,
2019-11-19 02:20:10,42.4,41.7,29.59,South,183,0,0,97,0.02,,,0.12,meteohub,2019-11-19 01:20:10,
2019-11-19 02:25:01,42.4,41.7,29.60,South,183,0,0,97,0.03,,,0.12,meteohub,2019-11-19 01:25:01,
2019-11-19 02:30:00,42.4,41.7,29.59,South,183,0,0,97,0.03,,,0.12,meteohub,2019-11-19 01:30:00,
2019-11-19 02:35:04,42.3,41.5,29.59,ESE,112,0,0,97,0.04,,,0.13,meteohub,2019-11-19 01:35:04,
2019-11-19 02:40:01,42.3,41.5,29.60,ESE,113,0,4,97,0.03,,,0.13,meteohub,2019-11-19 01:40:01,
2019-11-19 02:45:04,42.1,41.4,29.60,ESE,113,0,4,97,0.03,,,0.13,meteohub,2019-11-19 01:45:04,
2019-11-19 02:50:01,42.1,41.4,29.60,ESE,113,0,4,97,0.04,,,0.13,meteohub,2019-11-19 01:50:01,
2019-11-19 02:55:01,42.1,41.4,29.60,ESE,115,0,0,97,0.05,,,0.14,meteohub,2019-11-19 01:55:01,
2019-11-19 03:00:05,42.1,41.4,29.60,ESE,115,0,0,97,0.05,,,0.14,meteohub,2019-11-19 02:00:05,
2019-11-19 03:05:05,42.1,41.4,29.60,ESE,117,0,0,97,0.05,,,0.14,meteohub,2019-11-19 02:05:05,
2019-11-19 03:10:03,41.9,41.2,29.60,East,92,0,0,97,0.04,,,0.14,meteohub,2019-11-19 02:10:03,
2019-11-19 03:15:05,41.7,41,29.60,East,91,0,0,97,0.04,,,0.14,meteohub,2019-11-19 02:15:05,
2019-11-19 03:20:02,41.7,41,29.60,East,95,0,0,97,0.04,,,0.15,meteohub,2019-11-19 02:20:02,
2019-11-19 03:25:02,41.7,41,29.60,East,95,0,0,97,0.03,,,0.15,meteohub,2019-11-19 02:25:02,
2019-11-19 03:30:04,41.5,40.8,29.60,East,95,0,0,97,0.03,,,0.15,meteohub,2019-11-19 02:30:04,
2019-11-19 03:35:04,41.5,40.8,29.60,SSE,156,0,0,97,0.03,,,0.16,meteohub,2019-11-19 02:35:04,
2019-11-19 03:40:00,41.5,40.8,29.60,SSE,157,0,0,97,0.04,,,0.16,meteohub,2019-11-19 02:40:00,
2019-11-19 03:45:05,41.5,40.8,29.60,SSE,157,0,0,97,0.03,,,0.17,meteohub,2019-11-19 02:45:05,
2019-11-19 03:50:02,41.5,40.8,29.60,SSE,162,0,0,97,0.03,,,0.17,meteohub,2019-11-19 02:50:02,
2019-11-19 03:55:05,41.5,40.8,29.60,SSE,161,0,0,97,0.02,,,0.17,meteohub,2019-11-19 02:55:05,
2019-11-19 04:00:01,41.4,40.6,29.60,SSE,161,0,0,97,0.02,,,0.17,meteohub,2019-11-19 03:00:01,
2019-11-19 04:05:01,41.4,40.6,29.60,SSE,162,0,0,97,0.03,,,0.17,meteohub,2019-11-19 03:05:01,
2019-11-19 04:10:00,41.4,40.6,29.60,SSE,162,0,0,97,0.03,,,0.17,meteohub,2019-11-19 03:10:00,
2019-11-19 04:15:04,41.4,40.6,29.60,SSE,162,0,0,97,0.03,,,0.17,meteohub,2019-11-19 03:15:04,
2019-11-19 04:20:04,41.2,40.5,29.60,SSE,155,0,0,97,0.02,,,0.17,meteohub,2019-11-19 03:20:04,
2019-11-19 04:25:02,41.2,40.5,29.60,SSE,155,0,0,97,0.02,,,0.17,meteohub,2019-11-19 03:25:02,
2019-11-19 04:30:01,41,40.3,29.60,SSE,155,0,0,97,0.02,,,0.17,meteohub,2019-11-19 03:30:01,
2019-11-19 04:35:01,41,40.3,29.60,SE,141,0,0,97,0.02,,,0.17,meteohub,2019-11-19 03:35:01,
2019-11-19 04:40:00,41,40.3,29.60,ESE,111,1,0,97,0.01,,,0.17,meteohub,2019-11-19 03:40:00,
2019-11-19 04:45:05,40.8,40.1,29.60,ESE,112,0,0,97,0.01,,,0.17,meteohub,2019-11-19 03:45:05,
2019-11-19 04:50:07,40.8,40.1,29.60,ESE,112,0,4,97,0.01,,,0.17,meteohub,2019-11-19 03:50:07,
2019-11-19 04:55:04,40.8,40.1,29.60,ESE,117,0,4,97,0.01,,,0.17,meteohub,2019-11-19 03:55:04,
2019-11-19 05:00:00,40.8,40.1,29.60,ESE,117,0,6,97,0,,,0.17,meteohub,2019-11-19 04:00:00,
2019-11-19 05:05:01,40.8,40.1,29.60,ESE,117,0,6,97,0,,,0.17,meteohub,2019-11-19 04:05:01,
2019-11-19 05:10:00,40.8,40.1,29.60,ESE,117,0,6,97,0,,,0.17,meteohub,2019-11-19 04:10:00,
2019-11-19 05:15:02,40.8,40.1,29.60,ESE,117,0,0,97,0,,,0.17,meteohub,2019-11-19 04:15:02,
2019-11-19 05:20:04,40.8,40.1,29.60,ESE,117,0,0,97,0,,,0.17,meteohub,2019-11-19 04:20:04,
2019-11-19 05:25:00,40.8,40.1,29.60,ESE,117,0,0,97,0,,,0.17,meteohub,2019-11-19 04:25:00,
2019-11-19 05:30:05,40.8,40.1,29.60,ESE,117,0,0,97,0,,,0.17,meteohub,2019-11-19 04:30:05,
2019-11-19 05:35:04,40.8,40.1,29.60,ESE,117,0,0,97,0,,,0.17,meteohub,2019-11-19 04:35:04,
2019-11-19 05:40:03,40.8,40.1,29.60,ESE,119,0,0,97,0,,,0.17,meteohub,2019-11-19 04:40:03,
2019-11-19 05:45:03,40.8,40.1,29.60,ESE,119,0,0,97,0,,,0.17,meteohub,2019-11-19 04:45:03,
2019-11-19 05:50:02,40.8,40.1,29.60,ESE,119,0,0,97,0,,,0.17,meteohub,2019-11-19 04:50:02,
2019-11-19 05:55:04,40.8,40.1,29.60,ESE,119,0,0,97,0,,,0.17,meteohub,2019-11-19 04:55:04,
2019-11-19 06:00:05,40.8,40.1,29.60,ESE,119,0,0,97,0,,,0.17,meteohub,2019-11-19 05:00:05,
2019-11-19 06:05:02,40.8,40.1,29.61,SSE,161,0,0,97,0,,,0.17,meteohub,2019-11-19 05:05:02,
2019-11-19 06:10:00,40.8,40.1,29.61,SE,145,0,2,97,0,,,0.17,meteohub,2019-11-19 05:10:00,
2019-11-19 06:15:00,40.8,40.1,29.61,South,174,0,4,97,0,,,0.17,meteohub,2019-11-19 05:15:00,
2019-11-19 06:20:04,40.8,40.1,29.61,South,186,0,4,97,0,,,0.17,meteohub,2019-11-19 05:20:04,
2019-11-19 06:25:02,40.8,40.1,29.61,South,186,0,4,97,0,,,0.17,meteohub,2019-11-19 05:25:02,
2019-11-19 06:30:05,40.8,40.1,29.61,South,186,0,3,97,0,,,0.17,meteohub,2019-11-19 05:30:05,
2019-11-19 06:35:00,40.8,40.1,29.61,South,186,0,3,97,0,,,0.17,meteohub,2019-11-19 05:35:00,
2019-11-19 06:40:01,41,40.3,29.61,South,186,0,0,97,0,,,0.17,meteohub,2019-11-19 05:40:01,
2019-11-19 06:45:01,41,40.3,29.62,South,186,0,0,97,0,,,0.17,meteohub,2019-11-19 05:45:01,
2019-11-19 06:50:01,41,40.3,29.62,South,186,0,0,97,0,,,0.17,meteohub,2019-11-19 05:50:01,
2019-11-19 06:55:03,41,40.3,29.62,South,186,0,0,97,0,,,0.17,meteohub,2019-11-19 05:55:03,
2019-11-19 07:00:03,41,40.3,29.62,South,186,0,0,97,0,,,0.17,meteohub,2019-11-19 06:00:03,
2019-11-19 07:05:04,41,40.3,29.62,South,186,0,0,97,0,,,0.17,meteohub,2019-11-19 06:05:04,
2019-11-19 07:10:05,41,40.3,29.62,South,186,0,0,97,0,,,0.17,meteohub,2019-11-19 06:10:05,
2019-11-19 07:15:05,41,40.3,29.62,South,183,0,0,97,0,,,0.17,meteohub,2019-11-19 06:15:05,
2019-11-19 07:20:05,41,40.3,29.62,South,183,0,0,97,0,,,0.17,meteohub,2019-11-19 06:20:05,
2019-11-19 07:25:02,41,40.3,29.63,SW,227,0,0,97,0,,,0.17,meteohub,2019-11-19 06:25:02,
2019-11-19 07:30:02,41.2,40.5,29.63,South,180,0,0,97,0,,,0.17,meteohub,2019-11-19 06:30:02,
2019-11-19 07:35:00,41.2,40.5,29.63,South,180,0,0,97,0,,,0.17,meteohub,2019-11-19 06:35:00,
2019-11-19 07:40:00,41.2,40.5,29.63,South,179,0,0,97,0,,,0.17,meteohub,2019-11-19 06:40:00,
2019-11-19 07:45:04,41.2,40.5,29.63,South,179,0,0,97,0,,,0.17,meteohub,2019-11-19 06:45:04,
2019-11-19 07:50:02,41.2,40.5,29.63,South,179,0,0,97,0,,,0.17,meteohub,2019-11-19 06:50:02,
2019-11-19 07:55:00,41.2,40.5,29.63,South,179,0,0,97,0,,,0.17,meteohub,2019-11-19 06:55:00,
2019-11-19 08:00:05,41.2,40.5,29.63,South,178,0,0,97,0,,,0.17,meteohub,2019-11-19 07:00:05,
2019-11-19 08:05:02,41.2,40.5,29.63,South,178,0,0,97,0,,,0.17,meteohub,2019-11-19 07:05:02,
2019-11-19 08:10:02,41.2,40.5,29.63,South,178,0,0,97,0,,,0.17,meteohub,2019-11-19 07:10:02,
2019-11-19 08:15:05,41.4,40.6,29.63,South,178,0,0,97,0,,,0.17,meteohub,2019-11-19 07:15:05,
2019-11-19 08:20:03,41.4,40.6,29.64,South,178,0,0,97,0,,,0.17,meteohub,2019-11-19 07:20:03,
2019-11-19 08:25:03,41.2,40.5,29.64,South,178,0,0,97,0.01,,,0.18,meteohub,2019-11-19 07:25:03,
2019-11-19 08:30:11,41.4,40.6,29.64,South,178,0,0,97,0.01,,,0.18,meteohub,2019-11-19 07:30:11,
2019-11-19 08:35:01,41.4,40.6,29.64,South,178,0,0,97,0.01,,,0.18,meteohub,2019-11-19 07:35:01,
2019-11-19 08:40:01,41.4,40.6,29.64,SE,130,0,0,97,0.01,,,0.18,meteohub,2019-11-19 07:40:01,
2019-11-19 08:45:04,41.4,40.6,29.65,SE,130,0,0,97,0.01,,,0.18,meteohub,2019-11-19 07:45:04,
2019-11-19 08:50:04,41.4,40.6,29.65,SE,130,0,0,97,0.01,,,0.18,meteohub,2019-11-19 07:50:04,
2019-11-19 08:55:01,41.4,40.6,29.65,SE,126,0,0,97,0.01,,,0.18,meteohub,2019-11-19 07:55:01,
2019-11-19 09:00:05,41.5,40.8,29.65,SE,130,0,0,97,0.02,,,0.19,meteohub,2019-11-19 08:00:05,
2019-11-19 09:05:13,41.5,40.8,29.65,SE,130,0,0,97,0.02,,,0.19,meteohub,2019-11-19 08:05:13,
2019-11-19 09:10:04,41.5,40.8,29.66,SE,140,0,0,97,0.02,,,0.19,meteohub,2019-11-19 08:10:04,
2019-11-19 09:15:01,41.5,40.8,29.66,SE,140,0,0,97,0.02,,,0.19,meteohub,2019-11-19 08:15:01,
2019-11-19 09:20:04,41.5,40.8,29.66,SE,140,0,0,97,0.01,,,0.19,meteohub,2019-11-19 08:20:04,
2019-11-19 09:25:05,41.5,40.8,29.66,SE,140,0,0,97,0.01,,,0.19,meteohub,2019-11-19 08:25:05,
2019-11-19 09:30:01,41.7,41,29.66,SE,140,0,0,97,0.01,,,0.19,meteohub,2019-11-19 08:30:01,
2019-11-19 09:35:04,41.9,41.2,29.66,SE,140,0,0,97,0.01,,,0.19,meteohub,2019-11-19 08:35:04,
2019-11-19 09:40:03,42.1,41.4,29.66,SE,140,0,0,97,0.01,,,0.19,meteohub,2019-11-19 08:40:03,
2019-11-19 09:45:01,42.3,41.5,29.66,SE,140,0,0,97,0.01,,,0.19,meteohub,2019-11-19 08:45:01,
2019-11-19 09:50:01,42.3,41.5,29.66,SE,140,0,0,97,0.01,,,0.19,meteohub,2019-11-19 08:50:01,
2019-11-19 09:55:02,42.4,41.7,29.66,SE,140,0,0,97,0.01,,,0.19,meteohub,2019-11-19 08:55:02,
2019-11-19 10:00:04,42.6,41.9,29.67,SE,140,0,0,97,0.01,,,0.2,meteohub,2019-11-19 09:00:04,
2019-11-19 10:05:01,42.6,41.9,29.67,SE,140,0,0,97,0.01,,,0.2,meteohub,2019-11-19 09:05:01,
2019-11-19 10:10:03,43,42.3,29.67,SE,140,0,0,97,0.01,,,0.2,meteohub,2019-11-19 09:10:03,
2019-11-19 10:15:05,43.2,42.4,29.68,SE,144,0,0,97,0.01,,,0.2,meteohub,2019-11-19 09:15:05,
2019-11-19 10:20:05,44.2,43.5,29.68,West,279,1,0,97,0.01,,,0.2,meteohub,2019-11-19 09:20:05,
2019-11-19 10:25:03,45.3,44.8,29.68,WNW,291,3,5,98,0.01,,,0.2,meteohub,2019-11-19 09:25:03,
2019-11-19 10:30:02,45.9,45.3,29.68,WNW,287,2,7,98,0.01,,,0.2,meteohub,2019-11-19 09:30:02,
2019-11-19 10:35:04,46,45.5,29.68,WSW,244,4,8,98,0.01,,,0.2,meteohub,2019-11-19 09:35:04,
2019-11-19 10:40:14,46.2,45.7,29.68,West,281,3,8,98,0.01,,,0.2,meteohub,2019-11-19 09:40:14,
2019-11-19 10:45:00,46.2,45.7,29.68,SW,232,4,13,98,0.01,,,0.2,meteohub,2019-11-19 09:45:00,
2019-11-19 10:50:04,46.4,45.9,29.68,WNW,291,5,13,98,0.01,,,0.2,meteohub,2019-11-19 09:50:04,
2019-11-19 10:55:08,46.4,45.9,29.69,WNW,292,4,13,98,0,,,0.2,meteohub,2019-11-19 09:55:08,
2019-11-19 11:00:00,46.4,45.9,29.69,West,273,6,14,98,0,,,0.2,meteohub,2019-11-19 10:00:00,
2019-11-19 11:05:02,46.4,45.9,29.70,WSW,238,8,14,98,0,,,0.2,meteohub,2019-11-19 10:05:02,
2019-11-19 11:10:05,46.4,45.9,29.70,West,279,0,14,98,0.01,,,0.2,meteohub,2019-11-19 10:10:05,
2019-11-19 11:15:01,46.4,45.9,29.70,West,265,2,13,98,0.01,,,0.2,meteohub,2019-11-19 10:15:01,
2019-11-19 11:20:00,46.4,45.7,29.70,West,267,2,13,97,0.01,,,0.2,meteohub,2019-11-19 10:20:00,
2019-11-19 11:25:02,46.6,46,29.71,West,280,3,12,98,0.01,,,0.2,meteohub,2019-11-19 10:25:02,
2019-11-19 11:30:04,46.6,46,29.71,West,280,0,12,98,0.01,,,0.2,meteohub,2019-11-19 10:30:04,
2019-11-19 11:35:00,46.6,46,29.71,WNW,283,2,12,98,0.01,,,0.2,meteohub,2019-11-19 10:35:00,
2019-11-19 11:40:02,46.6,46,29.71,WNW,292,4,11,98,0.01,,,0.2,meteohub,2019-11-19 10:40:02,
2019-11-19 11:45:04,46.8,46.2,29.71,West,270,3,11,98,0.01,,,0.2,meteohub,2019-11-19 10:45:04,
2019-11-19 11:50:02,46.8,46,29.71,West,269,0,10,97,0.01,,,0.2,meteohub,2019-11-19 10:50:02,
2019-11-19 11:55:05,46.8,46,29.71,WSW,252,0,10,97,0.01,,,0.2,meteohub,2019-11-19 10:55:05,
2019-11-19 12:00:00,46.9,46.2,29.71,WNW,296,2,10,97,0.01,,,0.2,meteohub,2019-11-19 11:00:00,
2019-11-19 12:05:04,46.9,46.2,29.72,WSW,250,4,8,97,0,,,0.2,meteohub,2019-11-19 11:05:04,
2019-11-19 12:10:02,46.9,46.2,29.72,WSW,254,4,8,97,0,,,0.2,meteohub,2019-11-19 11:10:02,
2019-11-19 12:15:00,46.9,46.2,29.72,West,277,2,8,97,0,,,0.2,meteohub,2019-11-19 11:15:00,
2019-11-19 12:20:00,46.9,46.2,29.72,WSW,252,3,10,97,0,,,0.2,meteohub,2019-11-19 11:20:00,
2019-11-19 12:25:02,46.9,46.2,29.73,West,263,4,10,97,0,,,0.2,meteohub,2019-11-19 11:25:02,
2019-11-19 12:30:01,46.9,46.2,29.73,SW,225,7,10,97,0,,,0.2,meteohub,2019-11-19 11:30:01,
2019-11-19 12:35:01,46.9,46.2,29.73,WSW,246,2,9,97,0,,,0.2,meteohub,2019-11-19 11:35:01,
2019-11-19 12:40:00,46.9,46.2,29.73,WSW,240,2,10,97,0,,,0.2,meteohub,2019-11-19 11:40:00,
2019-11-19 12:45:05,46.9,45.9,29.74,WSW,254,0,10,96,0,,,0.2,meteohub,2019-11-19 11:45:05,
2019-11-19 12:50:04,47.1,46,29.74,West,267,2,8,96,0,,,0.2,meteohub,2019-11-19 11:50:04,
2019-11-19 12:55:03,47.1,46,29.74,WSW,253,4,8,96,0,,,0.2,meteohub,2019-11-19 11:55:03,
2019-11-19 13:00:03,47.1,46,29.75,SW,232,2,8,96,0,,,0.2,meteohub,2019-11-19 12:00:03,
2019-11-19 13:05:04,47.3,46.2,29.75,WSW,258,3,8,96,0,,,0.2,meteohub,2019-11-19 12:05:04,
2019-11-19 13:10:02,47.3,45.9,29.75,SW,234,5,8,95,0,,,0.2,meteohub,2019-11-19 12:10:02,
2019-11-19 13:15:00,47.3,45.9,29.75,SW,234,6,9,95,0,,,0.2,meteohub,2019-11-19 12:15:00,
2019-11-19 13:20:04,47.3,45.9,29.75,WSW,244,5,9,95,0,,,0.2,meteohub,2019-11-19 12:20:04,
2019-11-19 13:25:03,47.3,45.9,29.76,SW,236,3,9,95,0,,,0.2,meteohub,2019-11-19 12:25:03,
2019-11-19 13:30:03,47.1,45.7,29.76,West,261,6,11,95,0,,,0.2,meteohub,2019-11-19 12:30:03,
2019-11-19 13:35:03,47.1,45.7,29.76,West,263,2,11,95,0,,,0.2,meteohub,2019-11-19 12:35:03,
2019-11-19 13:40:01,46.9,45.5,29.77,West,266,2,11,95,0,,,0.2,meteohub,2019-11-19 12:40:01,
2019-11-19 13:45:04,46.9,45.5,29.77,West,280,1,11,95,0,,,0.2,meteohub,2019-11-19 12:45:04,
2019-11-19 13:50:05,46.9,45.5,29.77,WNW,291,1,12,95,0,,,0.2,meteohub,2019-11-19 12:50:05,
2019-11-19 13:55:02,46.8,45.3,29.77,WSW,245,3,13,95,0,,,0.2,meteohub,2019-11-19 12:55:02,
2019-11-19 14:00:04,46.8,45.3,29.77,West,281,4,13,95,0,,,0.2,meteohub,2019-11-19 13:00:04,
2019-11-19 14:05:03,46.8,45.3,29.77,WSW,256,0,13,95,0,,,0.2,meteohub,2019-11-19 13:05:03,
2019-11-19 14:10:02,46.8,45.3,29.78,WSW,245,1,9,95,0,,,0.2,meteohub,2019-11-19 13:10:02,
2019-11-19 14:15:01,46.8,45.3,29.78,WSW,244,2,8,95,0,,,0.2,meteohub,2019-11-19 13:15:01,
2019-11-19 14:20:08,46.9,45.9,29.78,SW,230,3,7,96,0,,,0.2,meteohub,2019-11-19 13:20:08,
2019-11-19 14:25:01,46.9,45.5,29.78,West,263,2,7,95,0,,,0.2,meteohub,2019-11-19 13:25:01,
2019-11-19 14:30:03,46.9,45.5,29.79,WSW,244,4,10,95,0,,,0.2,meteohub,2019-11-19 13:30:03,
2019-11-19 14:35:01,46.9,45.5,29.79,WSW,257,4,12,95,0,,,0.2,meteohub,2019-11-19 13:35:01,
2019-11-19 14:40:01,47.1,45.5,29.79,WSW,252,8,12,94,0,,,0.2,meteohub,2019-11-19 13:40:01,
2019-11-19 14:45:01,47.1,45.5,29.80,WSW,246,3,12,94,0,,,0.2,meteohub,2019-11-19 13:45:01,
2019-11-19 14:50:01,47.1,45.1,29.80,WSW,238,2,9,93,0,,,0.2,meteohub,2019-11-19 13:50:01,
2019-11-19 14:55:00,47.1,45.1,29.80,WSW,246,7,9,93,0,,,0.2,meteohub,2019-11-19 13:55:00,
2019-11-19 15:00:00,47.1,45.1,29.81,WSW,242,9,10,93,0,,,0.2,meteohub,2019-11-19 14:00:00,
2019-11-19 15:05:03,46.9,45,29.81,WSW,240,6,11,93,0,,,0.2,meteohub,2019-11-19 14:05:03,
2019-11-19 15:10:05,46.8,44.8,29.81,SW,236,3,11,93,0,,,0.2,meteohub,2019-11-19 14:10:05,
2019-11-19 15:15:03,46.9,45,29.81,WSW,248,3,11,93,0,,,0.2,meteohub,2019-11-19 14:15:03,
2019-11-19 15:20:01,46.8,44.8,29.81,WSW,245,2,9,93,0,,,0.2,meteohub,2019-11-19 14:20:01,
2019-11-19 15:25:00,46.9,45,29.82,SW,221,5,9,93,0,,,0.2,meteohub,2019-11-19 14:25:00,
2019-11-19 15:30:03,46.9,45,29.82,West,265,3,11,93,0,,,0.2,meteohub,2019-11-19 14:30:03,
2019-11-19 15:35:04,46.9,45.3,29.83,WSW,244,3,11,94,0,,,0.2,meteohub,2019-11-19 14:35:04,
2019-11-19 15:40:02,46.9,45.3,29.83,SW,234,2,11,94,0,,,0.2,meteohub,2019-11-19 14:40:02,
2019-11-19 15:45:02,46.8,45.1,29.83,WSW,253,5,9,94,0,,,0.2,meteohub,2019-11-19 14:45:02,
2019-11-19 15:50:00,46.8,45.1,29.83,WSW,242,4,10,94,0,,,0.2,meteohub,2019-11-19 14:50:00,
2019-11-19 15:55:03,46.8,45.1,29.83,WSW,243,3,10,94,0,,,0.2,meteohub,2019-11-19 14:55:03,
2019-11-19 16:00:04,46.8,45.1,29.84,WSW,244,5,10,94,0,,,0.2,meteohub,2019-11-19 15:00:04,
2019-11-19 16:05:16,46.8,45.1,29.84,WSW,257,4,10,94,0,,,0.2,meteohub,2019-11-19 15:05:16,
2019-11-19 16:10:03,46.8,45.1,29.84,WSW,257,5,10,94,0,,,0.2,meteohub,2019-11-19 15:10:03,
2019-11-19 16:15:02,46.6,45,29.85,WSW,247,3,10,94,0,,,0.2,meteohub,2019-11-19 15:15:02,
2019-11-19 16:20:01,46.6,45,29.85,WSW,248,3,10,94,0,,,0.2,meteohub,2019-11-19 15:20:01,
2019-11-19 16:25:01,46.6,45,29.86,WSW,252,10,10,94,0.01,,,0.21,meteohub,2019-11-19 15:25:01,
2019-11-19 16:30:04,46.6,45,29.85,WSW,250,5,11,94,0.01,,,0.21,meteohub,2019-11-19 15:30:04,
2019-11-19 16:35:02,46.6,45,29.86,West,277,4,11,94,0.01,,,0.21,meteohub,2019-11-19 15:35:02,
2019-11-19 16:40:01,46.6,45,29.86,SW,232,4,12,94,0.01,,,0.21,meteohub,2019-11-19 15:40:01,
2019-11-19 16:45:04,46.6,45,29.86,West,265,0,12,94,0.01,,,0.21,meteohub,2019-11-19 15:45:04,
2019-11-19 16:50:13,46.6,44.6,29.86,West,262,0,13,93,0.01,,,0.21,meteohub,2019-11-19 15:50:13,
2019-11-19 16:55:04,46.4,44.4,29.87,WSW,237,6,13,93,0.01,,,0.21,meteohub,2019-11-19 15:55:04,
2019-11-19 17:00:03,46.4,44.4,29.87,West,267,0,12,93,0.01,,,0.21,meteohub,2019-11-19 16:00:03,
2019-11-19 17:05:01,46.6,44.6,29.87,SW,233,4,13,93,0.01,,,0.21,meteohub,2019-11-19 16:05:01,
2019-11-19 17:10:03,46.6,44.6,29.87,West,259,2,13,93,0.01,,,0.21,meteohub,2019-11-19 16:10:03,
2019-11-19 17:15:02,46.6,44.6,29.87,WNW,290,0,13,93,0.01,,,0.21,meteohub,2019-11-19 16:15:02,
2019-11-19 17:20:02,46.6,44.6,29.87,WSW,252,7,12,93,0,,,0.21,meteohub,2019-11-19 16:20:02,
2019-11-19 17:25:00,46.4,44.4,29.87,West,264,2,12,93,0,,,0.21,meteohub,2019-11-19 16:25:00,
2019-11-19 17:30:05,46.4,44.4,29.88,West,259,0,12,93,0,,,0.21,meteohub,2019-11-19 16:30:05,
2019-11-19 17:35:00,46.4,44.8,29.88,WSW,239,3,11,94,0,,,0.21,meteohub,2019-11-19 16:35:00,
2019-11-19 17:40:01,46.4,44.4,29.88,WNW,290,3,12,93,0,,,0.21,meteohub,2019-11-19 16:40:01,
2019-11-19 17:45:03,46.4,44.4,29.88,West,265,2,12,93,0,,,0.21,meteohub,2019-11-19 16:45:03,
2019-11-19 17:50:05,46.2,44.2,29.88,WSW,249,8,12,93,0,,,0.21,meteohub,2019-11-19 16:50:05,
2019-11-19 17:55:00,46.4,44.4,29.88,WNW,286,0,8,93,0,,,0.21,meteohub,2019-11-19 16:55:00,
2019-11-19 18:00:03,46.2,44.2,29.89,West,267,1,9,93,0,,,0.21,meteohub,2019-11-19 17:00:03,
2019-11-19 18:05:02,46.2,44.2,29.89,West,271,6,12,93,0,,,0.21,meteohub,2019-11-19 17:05:02,
2019-11-19 18:10:01,46.2,44.2,29.89,West,269,3,12,93,0,,,0.21,meteohub,2019-11-19 17:10:01,
2019-11-19 18:15:00,46.4,44.4,29.90,WSW,250,8,12,93,0,,,0.21,meteohub,2019-11-19 17:15:00,
2019-11-19 18:20:04,46.4,44.2,29.90,WSW,252,1,10,92,0,,,0.21,meteohub,2019-11-19 17:20:04,
2019-11-19 18:25:01,46.6,44.6,29.90,WSW,243,3,9,93,0,,,0.21,meteohub,2019-11-19 17:25:01,
2019-11-19 18:30:02,46.6,44.4,29.91,WSW,246,4,10,92,0,,,0.21,meteohub,2019-11-19 17:30:02,
2019-11-19 18:35:04,46.6,44.4,29.91,West,262,6,10,92,0,,,0.21,meteohub,2019-11-19 17:35:04,
2019-11-19 18:40:04,46.6,44.4,29.91,West,275,1,10,92,0,,,0.21,meteohub,2019-11-19 17:40:04,
2019-11-19 18:45:05,46.6,44.1,29.91,West,264,9,9,91,0,,,0.21,meteohub,2019-11-19 17:45:05,
2019-11-19 18:50:02,46.8,44.2,29.91,SW,230,5,8,91,0,,,0.21,meteohub,2019-11-19 17:50:02,
2019-11-19 18:55:00,46.6,44.1,29.91,West,279,3,11,91,0,,,0.21,meteohub,2019-11-19 17:55:00,
2019-11-19 19:00:04,46.6,44.1,29.91,WSW,243,0,11,91,0,,,0.21,meteohub,2019-11-19 18:00:04,
2019-11-19 19:05:03,46.6,44.1,29.92,West,260,1,8,91,0,,,0.21,meteohub,2019-11-19 18:05:03,
2019-11-19 19:10:02,46.8,44.2,29.92,West,263,3,6,91,0,,,0.21,meteohub,2019-11-19 18:10:02,
2019-11-19 19:15:05,46.9,44.4,29.92,WSW,239,1,7,91,0,,,0.21,meteohub,2019-11-19 18:15:05,
2019-11-19 19:20:01,46.9,44.4,29.92,WNW,286,1,8,91,0,,,0.21,meteohub,2019-11-19 18:20:01,
2019-11-19 19:25:04,46.8,44.6,29.93,West,267,2,11,92,0,,,0.21,meteohub,2019-11-19 18:25:04,
2019-11-19 19:30:03,46.6,44.4,29.93,WSW,250,1,11,92,0,,,0.21,meteohub,2019-11-19 18:30:03,
2019-11-19 19:35:02,46.6,44.4,29.93,West,269,0,11,92,0,,,0.21,meteohub,2019-11-19 18:35:02,
2019-11-19 19:40:01,46.6,44.4,29.93,WSW,250,2,8,92,0,,,0.21,meteohub,2019-11-19 18:40:01,
2019-11-19 19:45:02,46.6,44.4,29.93,West,271,3,8,92,0,,,0.21,meteohub,2019-11-19 18:45:02,
2019-11-19 19:50:00,46.6,44.1,29.94,WSW,246,0,8,91,0,,,0.21,meteohub,2019-11-19 18:50:00,
2019-11-19 19:55:00,46.6,44.1,29.94,West,271,1,6,91,0,,,0.21,meteohub,2019-11-19 18:55:00,
2019-11-19 20:00:02,46.8,44.2,29.94,WNW,283,1,7,91,0,,,0.21,meteohub,2019-11-19 19:00:02,
2019-11-19 20:05:10,46.6,44.1,29.95,NW,321,0,12,91,0,,,0.21,meteohub,2019-11-19 19:05:10,
2019-11-19 20:10:04,46.6,44.1,29.95,West,273,9,12,91,0,,,0.21,meteohub,2019-11-19 19:10:04,
2019-11-19 20:15:03,46.6,44.1,29.95,West,281,4,11,91,0,,,0.21,meteohub,2019-11-19 19:15:03,
2019-11-19 20:20:01,46.6,44.1,29.95,West,274,0,13,91,0,,,0.21,meteohub,2019-11-19 19:20:01,
2019-11-19 20:25:02,46.4,43.9,29.96,WNW,284,0,13,91,0,,,0.21,meteohub,2019-11-19 19:25:02,
2019-11-19 20:30:01,46.2,43.7,29.96,West,279,3,13,91,0,,,0.21,meteohub,2019-11-19 19:30:01,
2019-11-19 20:35:00,46.2,43.7,29.96,WNW,283,1,13,91,0,,,0.21,meteohub,2019-11-19 19:35:00,
2019-11-19 20:40:00,46.2,43.7,29.97,WNW,289,0,12,91,0,,,0.21,meteohub,2019-11-19 19:40:00,
2019-11-19 20:45:03,46.2,43.7,29.97,West,281,0,12,91,0,,,0.21,meteohub,2019-11-19 19:45:03,
2019-11-19 20:50:00,46.2,43.7,29.97,WNW,292,0,12,91,0,,,0.21,meteohub,2019-11-19 19:50:00,
2019-11-19 20:55:00,46.2,43.7,29.97,West,267,0,11,91,0,,,0.21,meteohub,2019-11-19 19:55:00,
2019-11-19 21:00:00,46.2,43.7,29.98,West,273,0,1,91,0,,,0.21,meteohub,2019-11-19 20:00:00,
2019-11-19 21:05:04,46.2,43.5,29.98,West,271,0,10,90,0,,,0.21,meteohub,2019-11-19 20:05:04,
2019-11-19 21:10:02,46.2,43.2,29.98,WNW,298,0,10,89,0,,,0.21,meteohub,2019-11-19 20:10:02,
2019-11-19 21:15:00,46.4,43,29.99,WNW,297,0,10,88,0,,,0.21,meteohub,2019-11-19 20:15:00,
2019-11-19 21:20:02,46.6,43.2,29.99,WNW,291,0,11,88,0,,,0.21,meteohub,2019-11-19 20:20:02,
2019-11-19 21:25:02,46.6,43.2,29.99,West,269,0,11,88,0,,,0.21,meteohub,2019-11-19 20:25:02,
2019-11-19 21:30:04,46.6,43.2,29.99,West,280,0,11,88,0,,,0.21,meteohub,2019-11-19 20:30:04,
2019-11-19 21:35:05,46.6,43.2,29.99,WNW,288,0,10,88,0,,,0.21,meteohub,2019-11-19 20:35:05,
2019-11-19 21:40:04,46.4,43,29.99,WNW,289,0,10,88,0,,,0.21,meteohub,2019-11-19 20:40:04,
2019-11-19 21:45:01,46.4,43,30.00,West,279,0,10,88,0,,,0.21,meteohub,2019-11-19 20:45:01,
2019-11-19 21:50:00,46.4,42.8,30.00,WNW,296,0,1,87,0,,,0.21,meteohub,2019-11-19 20:50:00,
2019-11-19 21:55:04,46.4,42.8,30.00,NW,304,0,1,87,0,,,0.21,meteohub,2019-11-19 20:55:04,
2019-11-19 22:00:02,46.2,42.8,30.00,WNW,298,0,1,88,0,,,0.21,meteohub,2019-11-19 21:00:02,
2019-11-19 22:05:04,46.2,42.8,30.00,WNW,303,0,1,88,0,,,0.21,meteohub,2019-11-19 21:05:04,
2019-11-19 22:10:02,46.2,42.8,30.01,WNW,299,0,1,88,0,,,0.21,meteohub,2019-11-19 21:10:02,
2019-11-19 22:15:05,46.2,42.8,30.01,WNW,299,0,0,88,0,,,0.21,meteohub,2019-11-19 21:15:05,
2019-11-19 22:20:02,46,42.6,30.01,WNW,299,0,0,88,0,,,0.21,meteohub,2019-11-19 21:20:02,
2019-11-19 22:25:05,46,42.6,30.01,WNW,299,0,0,88,0,,,0.21,meteohub,2019-11-19 21:25:05,
2019-11-19 22:30:03,45.9,42.4,30.01,WNW,299,0,0,88,0,,,0.21,meteohub,2019-11-19 21:30:03,
2019-11-19 22:35:05,45.9,42.8,30.01,WNW,299,0,0,89,0,,,0.21,meteohub,2019-11-19 21:35:05,
2019-11-19 22:40:02,45.9,42.8,30.02,WNW,299,0,0,89,0,,,0.21,meteohub,2019-11-19 21:40:02,
2019-11-19 22:45:03,45.7,42.6,30.02,WNW,299,0,0,89,0,,,0.21,meteohub,2019-11-19 21:45:03,
2019-11-19 22:50:04,45.7,42.6,30.02,WNW,290,0,0,89,0,,,0.21,meteohub,2019-11-19 21:50:04,
2019-11-19 22:55:03,45.7,42.6,30.02,WNW,290,0,0,89,0,,,0.21,meteohub,2019-11-19 21:55:03,
2019-11-19 23:00:05,45.7,42.6,30.02,WNW,290,0,0,89,0,,,0.21,meteohub,2019-11-19 22:00:05,
2019-11-19 23:05:17,45.7,42.6,30.02,WNW,290,0,0,89,0,,,0.21,meteohub,2019-11-19 22:05:17,
2019-11-19 23:10:04,45.7,42.6,30.02,WNW,290,0,0,89,0,,,0.21,meteohub,2019-11-19 22:10:04,
2019-11-19 23:15:02,45.7,42.6,30.02,WNW,290,0,0,89,0,,,0.21,meteohub,2019-11-19 22:15:02,
2019-11-19 23:20:13,45.7,42.3,30.03,WNW,296,0,0,88,0,,,0.21,meteohub,2019-11-19 22:20:13,
2019-11-19 23:25:14,45.7,42.3,30.03,WNW,295,0,0,88,0,,,0.21,meteohub,2019-11-19 22:25:14,
2019-11-19 23:30:04,45.7,42.3,30.03,WNW,295,0,0,88,0,,,0.21,meteohub,2019-11-19 22:30:04,
2019-11-19 23:35:01,45.7,42.3,30.04,WNW,295,0,0,88,0,,,0.21,meteohub,2019-11-19 22:35:01,
2019-11-19 23:40:00,45.7,42.3,30.04,WNW,295,0,0,88,0,,,0.21,meteohub,2019-11-19 22:40:00,
2019-11-19 23:45:11,45.7,42.3,30.04,WNW,296,0,0,88,0,,,0.21,meteohub,2019-11-19 22:45:11,
2019-11-19 23:50:01,45.7,42.3,30.04,WNW,295,0,0,88,0,,,0.21,meteohub,2019-11-19 22:50:01,
2019-11-19 23:55:01,45.5,42.1,30.04,WNW,295,0,0,88,0,,,0.21,meteohub,2019-11-19 22:55:01,